Time;durP1;ratioP1;P1;durP2;ratioP2;P2;SDS_P1;SDS_P2;PMS_P1;PMS_P2;Temp;Humidity;BMP_temperature;BMP_pressure;BME280_temperature;BME280_humidity;BME280_pressure;Samples;Min_cycle;Max_cycle;Signal;HPM_P1;HPM_P2
2021/07/18 00:00:06;;;;;;;;;0.00;0.00;;;;;26.60;100.00;101784.34;5038603;28;45519;-64
2021/07/18 00:02:32;;;;;;;;;0.00;0.00;;;;;26.53;100.00;101779.94;5021780;28;45565;-63
2021/07/18 00:04:57;;;;;;;;;0.00;0.00;;;;;26.52;100.00;101778.25;5039425;28;45560;-63
2021/07/18 00:07:23;;;;;;;;;0.00;0.00;;;;;26.47;100.00;101772.66;5038131;28;45429;-64
2021/07/18 00:09:48;;;;;;;;;0.00;0.00;;;;;26.50;100.00;101778.47;5039332;28;45400;-63
2021/07/18 00:12:14;;;;;;;;;0.00;0.00;;;;;26.45;100.00;101772.03;5039066;28;45558;-64
2021/07/18 00:14:39;;;;;;;;;0.00;0.00;;;;;26.44;100.00;101771.19;5039140;28;46921;-63
2021/07/18 00:17:04;;;;;;;;;0.00;0.00;;;;;26.35;100.00;101772.38;5038913;28;45367;-63
2021/07/18 00:19:29;;;;;;;;;0.00;0.00;;;;;26.36;100.00;101782.13;5039438;28;45441;-64
2021/07/18 00:21:55;;;;;;;;;0.00;0.00;;;;;26.32;100.00;101783.56;5038484;28;45552;-64
2021/07/18 00:24:20;;;;;;;;;0.75;0.25;;;;;26.29;100.00;101776.69;5038617;28;46329;-63
2021/07/18 00:26:46;;;;;;;;;0.00;0.00;;;;;26.26;100.00;101782.47;5021226;28;45470;-64
2021/07/18 00:29:11;;;;;;;;;0.00;0.00;;;;;26.15;100.00;101770.38;5039094;28;45552;-65
2021/07/18 00:31:36;;;;;;;;;0.00;0.00;;;;;26.14;100.00;101784.06;5039549;28;45296;-64
2021/07/18 00:34:02;;;;;;;;;0.00;0.00;;;;;26.11;100.00;101781.75;5038964;28;46182;-63
2021/07/18 00:36:27;;;;;;;;;0.00;0.00;;;;;26.12;100.00;101784.25;5038270;28;45525;-64
2021/07/18 00:38:52;;;;;;;;;0.00;0.00;;;;;26.11;100.00;101781.75;5038364;28;49813;-63
2021/07/18 00:41:18;;;;;;;;;0.00;0.00;;;;;26.04;100.00;101779.00;5035893;28;45342;-63
2021/07/18 00:43:43;;;;;;;;;0.00;0.00;;;;;26.02;100.00;101778.38;5036022;28;51329;-63
2021/07/18 00:46:09;;;;;;;;;0.00;0.00;;;;;26.01;100.00;101776.72;5036938;28;45465;-64
2021/07/18 00:48:35;;;;;;;;;0.00;0.00;;;;;26.02;100.00;101772.16;5039323;28;45485;-64
2021/07/18 00:51:01;;;;;;;;;0.00;0.00;;;;;25.96;100.00;101774.63;5041412;28;45482;-64
2021/07/18 00:53:26;;;;;;;;;0.00;0.00;;;;;25.98;100.00;101777.09;5041164;28;45375;-64
2021/07/18 00:55:52;;;;;;;;;0.00;0.00;;;;;25.98;100.00;101777.97;5041117;28;45233;-64
2021/07/18 00:58:18;;;;;;;;;0.00;0.00;;;;;25.94;100.00;101778.53;5039933;28;45350;-64
2021/07/18 01:00:44;;;;;;;;;0.00;0.00;;;;;25.89;100.00;101776.41;5042022;28;45551;-64
2021/07/18 01:03:10;;;;;;;;;0.00;0.00;;;;;25.72;100.00;101772.31;5039969;28;45762;-64
2021/07/18 01:05:35;;;;;;;;;0.00;0.00;;;;;25.88;100.00;101779.28;5041300;28;45401;-64
2021/07/18 01:08:01;;;;;;;;;0.00;0.00;;;;;25.83;100.00;101773.66;5042384;28;45749;-64
2021/07/18 01:10:27;;;;;;;;;0.00;0.00;;;;;25.66;100.00;101770.41;5040884;28;45469;-63
2021/07/18 01:12:53;;;;;;;;;0.00;0.00;;;;;25.80;100.00;101777.56;5042078;28;46619;-63
2021/07/18 01:15:18;;;;;;;;;0.00;0.00;;;;;25.65;100.00;101772.25;5041893;28;45399;-64
2021/07/18 01:17:44;;;;;;;;;0.00;0.00;;;;;25.61;100.00;101775.53;5034372;28;45533;-64
2021/07/18 01:20:11;;;;;;;;;0.00;0.00;;;;;25.57;100.00;101775.09;5039932;28;45462;-64
2021/07/18 01:22:37;;;;;;;;;0.00;0.00;;;;;25.68;100.00;101777.28;5040658;28;45479;-64
2021/07/18 01:25:09;;;;;;;;;0.00;0.00;;;;;25.69;100.00;101772.72;5040847;28;45489;-64
2021/07/18 01:27:35;;;;;;;;;0.00;0.00;;;;;25.71;100.00;101784.94;5042018;28;45564;-64
2021/07/18 01:30:03;;;;;;;;;0.00;0.00;;;;;25.65;100.00;101780.34;5041864;28;46555;-63
2021/07/18 01:32:28;;;;;;;;;0.00;0.00;;;;;25.60;100.00;101774.72;5040631;28;48294;-63
2021/07/18 01:34:54;;;;;;;;;0.00;0.00;;;;;25.58;100.00;101774.91;5041236;28;45344;-63
2021/07/18 01:37:19;;;;;;;;;0.00;0.00;;;;;25.58;100.00;101772.22;5041373;28;48688;-63
2021/07/18 01:39:46;;;;;;;;;0.00;0.00;;;;;25.53;100.00;101779.22;5041651;28;45314;-63
2021/07/18 01:42:11;;;;;;;;;0.00;0.00;;;;;25.50;100.00;101772.34;5041547;28;47008;-63
2021/07/18 01:44:36;;;;;;;;;0.00;0.00;;;;;25.44;100.00;101766.91;5041264;28;46401;-63
2021/07/18 01:47:02;;;;;;;;;0.00;0.00;;;;;25.43;100.00;101773.31;5041649;28;45490;-63
2021/07/18 01:49:27;;;;;;;;;0.00;0.00;;;;;25.41;100.00;101764.59;5041913;28;45481;-64
2021/07/18 01:51:53;;;;;;;;;0.00;0.00;;;;;25.38;100.00;101765.84;5041185;28;46272;-63
2021/07/18 01:54:18;;;;;;;;;0.00;0.00;;;;;25.40;100.00;101763.78;5037241;28;45370;-63
2021/07/18 01:56:44;;;;;;;;;0.00;0.00;;;;;25.35;100.00;101756.25;5022464;28;45356;-63
2021/07/18 01:59:09;;;;;;;;;0.00;0.00;;;;;25.38;100.00;101755.91;5041787;28;45483;-63
2021/07/18 02:01:35;;;;;;;;;0.00;0.00;;;;;25.40;100.00;101760.25;5040773;28;45288;-64
2021/07/18 02:04:02;;;;;;;;;0.00;0.00;;;;;25.36;100.00;101762.50;5041247;28;45522;-63
2021/07/18 02:06:28;;;;;;;;;0.00;0.00;;;;;25.37;100.00;101762.28;5035619;28;46033;-63
2021/07/18 02:08:55;;;;;;;;;0.00;0.00;;;;;25.33;100.00;101763.69;5041179;28;46392;-63
2021/07/18 02:11:22;;;;;;;;;0.00;0.00;;;;;25.31;100.00;101757.69;5041038;28;45375;-64
2021/07/18 02:13:48;;;;;;;;;0.00;0.00;;;;;25.29;100.00;101753.50;5039956;28;45560;-63
2021/07/18 02:16:14;;;;;;;;;0.00;0.00;;;;;25.27;100.00;101759.09;5035656;28;45537;-63
2021/07/18 02:18:40;;;;;;;;;0.00;0.00;;;;;25.22;100.00;101753.44;5041148;28;45651;-63
2021/07/18 02:21:06;;;;;;;;;0.00;0.00;;;;;25.24;100.00;101764.03;5041079;28;45439;-63
2021/07/18 02:23:31;;;;;;;;;0.00;0.00;;;;;25.24;100.00;101762.16;5040511;28;45402;-63
2021/07/18 02:25:56;;;;;;;;;0.00;0.00;;;;;25.20;100.00;101754.69;5040987;28;45334;-62
2021/07/18 02:28:22;;;;;;;;;0.00;0.00;;;;;25.19;100.00;101759.19;5040622;28;45413;-63
2021/07/18 02:30:47;;;;;;;;;0.00;0.00;;;;;25.15;100.00;101765.97;5040433;28;46053;-64
2021/07/18 02:33:13;;;;;;;;;0.00;0.00;;;;;25.16;100.00;101759.56;5040835;28;45323;-64
2021/07/18 02:35:38;;;;;;;;;0.00;0.00;;;;;25.09;100.00;101766.72;5041187;28;45296;-64
2021/07/18 02:38:03;;;;;;;;;0.00;0.00;;;;;25.07;100.00;101760.72;5040619;28;45406;-64
2021/07/18 02:40:29;;;;;;;;;0.00;0.00;;;;;25.10;100.00;101761.16;5040566;28;46135;-64
2021/07/18 02:42:55;;;;;;;;;0.00;0.00;;;;;25.08;100.00;101754.31;5039934;28;45331;-64
2021/07/18 02:45:23;;;;;;;;;0.00;0.00;;;;;25.00;100.00;101751.75;5040993;28;45624;-64
2021/07/18 02:47:49;;;;;;;;;0.00;0.00;;;;;25.01;100.00;101743.50;5040904;28;45471;-63
2021/07/18 02:50:17;;;;;;;;;0.00;0.00;;;;;25.05;100.00;101757.38;5040495;28;45434;-63
2021/07/18 02:52:43;;;;;;;;;0.00;0.00;;;;;25.07;100.00;101752.66;5022803;28;45443;-63
2021/07/18 02:55:09;;;;;;;;;0.00;0.00;;;;;25.10;100.00;101750.41;5040252;28;45460;-63
2021/07/18 02:57:35;;;;;;;;;0.00;0.00;;;;;25.07;100.00;101742.72;5041339;28;45334;-63
2021/07/18 03:00:00;;;;;;;;;0.00;0.00;;;;;25.02;100.00;101747.84;5040232;28;45556;-63
2021/07/18 03:02:26;;;;;;;;;0.00;0.00;;;;;25.02;100.00;101745.16;5039475;28;45252;-63
2021/07/18 03:04:52;;;;;;;;;0.00;0.00;;;;;24.92;100.00;101745.47;5037722;28;45379;-64
2021/07/18 03:07:17;;;;;;;;;0.00;0.00;;;;;24.89;100.00;101745.00;5040038;28;45387;-64
2021/07/18 03:09:43;;;;;;;;;0.00;0.00;;;;;24.89;100.00;101747.72;5022006;28;46024;-64
2021/07/18 03:12:08;;;;;;;;;0.00;0.00;;;;;24.86;100.00;101746.22;5038585;28;45430;-64
2021/07/18 03:14:34;;;;;;;;;0.00;0.00;;;;;24.85;100.00;101749.09;5022385;28;45402;-64
2021/07/18 03:16:59;;;;;;;;;0.00;0.00;;;;;24.81;100.00;101739.75;5040490;28;45399;-64
2021/07/18 03:19:25;;;;;;;;;0.00;0.00;;;;;24.78;100.00;101738.28;5039740;28;47146;-64
2021/07/18 03:21:50;;;;;;;;;0.00;0.00;;;;;24.77;100.00;101741.97;5039761;28;45387;-64
2021/07/18 03:24:15;;;;;;;;;0.00;0.00;;;;;24.84;100.00;101740.22;5040129;28;45362;-63
2021/07/18 03:26:41;;;;;;;;;0.00;0.00;;;;;24.73;100.00;101744.22;5040577;28;45463;-63
2021/07/18 03:29:06;;;;;;;;;0.00;0.00;;;;;24.68;100.00;101743.09;5039827;28;45447;-64
2021/07/18 03:31:32;;;;;;;;;0.00;0.00;;;;;24.66;100.00;101740.59;5039953;28;45644;-63
2021/07/18 03:33:57;;;;;;;;;0.00;0.00;;;;;24.65;100.00;101746.19;5040231;28;45312;-63
2021/07/18 03:36:22;;;;;;;;;0.00;0.00;;;;;24.65;100.00;101748.88;5040328;28;45331;-63
2021/07/18 03:38:48;;;;;;;;;0.00;0.00;;;;;24.70;100.00;101751.81;5039566;28;48909;-63
2021/07/18 03:41:13;;;;;;;;;0.00;0.00;;;;;24.64;100.00;101749.88;5039795;28;45291;-63
2021/07/18 03:43:38;;;;;;;;;0.00;0.00;;;;;24.59;100.00;101744.25;5037890;28;45843;-63
2021/07/18 03:46:04;;;;;;;;;0.00;0.00;;;;;24.59;100.00;101745.06;5039405;28;45458;-63
2021/07/18 03:48:33;;;;;;;;;0.00;0.00;;;;;24.60;100.00;101746.75;5039996;28;46237;-64
2021/07/18 03:50:58;;;;;;;;;0.00;0.00;;;;;24.59;100.00;101747.75;5035670;28;45941;-64
2021/07/18 03:53:24;;;;;;;;;0.00;0.00;;;;;24.56;100.00;101750.81;5039668;28;45529;-64
2021/07/18 03:55:49;;;;;;;;;0.00;0.00;;;;;24.53;100.00;101756.56;5039995;28;45568;-64
2021/07/18 03:58:14;;;;;;;;;0.00;0.00;;;;;24.52;100.00;101758.41;5039391;28;45441;-64
2021/07/18 04:00:40;;;;;;;;;0.00;0.00;;;;;24.56;100.00;101764.25;5034399;28;45398;-64
2021/07/18 04:03:05;;;;;;;;;0.00;0.00;;;;;24.49;100.00;101760.63;5031379;28;45442;-63
2021/07/18 04:05:32;;;;;;;;;0.00;0.00;;;;;24.49;100.00;101758.81;5034247;28;45470;-63
2021/07/18 04:07:57;;;;;;;;;0.00;0.00;;;;;24.46;100.00;101747.56;5039567;28;47004;-63
2021/07/18 04:10:23;;;;;;;;;0.00;0.00;;;;;24.34;100.00;101748.03;5034035;28;45557;-63
2021/07/18 04:12:48;;;;;;;;;0.00;0.00;;;;;24.29;100.00;101749.59;5040029;28;45392;-64
2021/07/18 04:15:14;;;;;;;;;0.00;0.00;;;;;24.21;100.00;101750.53;5021689;28;45504;-63
2021/07/18 04:17:39;;;;;;;;;0.00;0.00;;;;;24.16;100.00;101752.91;5035784;28;46435;-63
2021/07/18 04:20:06;;;;;;;;;0.00;0.00;;;;;24.42;100.00;101754.31;5039501;28;45293;-63
2021/07/18 04:22:31;;;;;;;;;0.00;0.00;;;;;24.19;100.00;101754.41;5038341;28;45422;-63
2021/07/18 04:24:57;;;;;;;;;0.00;0.00;;;;;24.15;100.00;101759.31;5039548;28;45500;-63
2021/07/18 04:27:22;;;;;;;;;0.00;0.00;;;;;24.12;100.00;101759.66;5039132;28;45482;-63
2021/07/18 04:29:48;;;;;;;;;0.00;0.00;;;;;24.11;100.00;101756.16;5020737;28;45344;-63
2021/07/18 04:32:13;;;;;;;;;0.00;0.00;;;;;24.12;100.00;101759.66;5021584;28;45466;-63
2021/07/18 04:34:42;;;;;;;;;0.00;0.00;;;;;24.12;100.00;101767.72;5021167;28;45754;-63
2021/07/18 04:37:08;;;;;;;;;0.00;0.00;;;;;24.10;100.00;101764.38;5033068;28;46423;-63
2021/07/18 04:39:33;;;;;;;;;0.00;0.00;;;;;24.05;100.00;101766.81;5038462;28;45549;-63
2021/07/18 04:42:00;;;;;;;;;0.00;0.00;;;;;24.07;100.00;101768.28;5039632;28;45369;-63
2021/07/18 04:44:25;;;;;;;;;0.00;0.00;;;;;24.06;100.00;101765.78;5038034;28;45585;-64
2021/07/18 04:46:54;;;;;;;;;0.00;0.00;;;;;24.05;100.00;101767.63;5036959;28;46338;-62
2021/07/18 04:49:20;;;;;;;;;0.00;0.00;;;;;24.10;100.00;101762.56;5038162;28;45704;-63
2021/07/18 04:51:45;;;;;;;;;0.00;0.00;;;;;24.09;100.00;101766.25;5038582;28;45347;-62
2021/07/18 04:54:11;;;;;;;;;0.00;0.00;;;;;24.16;100.00;101766.34;5021009;28;45907;-63
2021/07/18 04:56:36;;;;;;;;;0.00;0.00;;;;;24.19;100.00;101771.38;5038240;28;46492;-62
2021/07/18 04:59:02;;;;;;;;;0.00;0.00;;;;;24.53;100.00;101775.34;5038879;28;45351;-64
2021/07/18 05:01:27;;;;;;;;;0.00;0.00;;;;;24.32;100.00;101773.41;5036274;28;45900;-64
2021/07/18 05:03:52;;;;;;;;;0.00;0.00;;;;;24.30;100.00;101776.25;5030336;28;45611;-64
2021/07/18 05:06:18;;;;;;;;;0.00;0.00;;;;;24.33;100.00;101781.25;5036546;28;46355;-66
2021/07/18 05:08:43;;;;;;;;;0.00;0.00;;;;;24.30;100.00;101784.31;5036614;28;54200;-66
2021/07/18 05:11:08;;;;;;;;;0.00;0.00;;;;;24.36;100.00;101788.97;5038095;28;45302;-65
2021/07/18 05:13:34;;;;;;;;;0.00;0.00;;;;;24.48;100.00;101791.16;5037900;28;45449;-67
2021/07/18 05:15:59;;;;;;;;;0.00;0.00;;;;;24.39;100.00;101795.81;5035898;28;47195;-67
2021/07/18 05:18:24;;;;;;;;;0.00;0.00;;;;;24.44;100.00;101795.25;5020295;28;45606;-67
2021/07/18 05:20:50;;;;;;;;;0.00;0.00;;;;;24.53;100.00;101797.66;5037740;28;45793;-67
2021/07/18 05:23:15;;;;;;;;;0.00;0.00;;;;;24.46;100.00;101796.72;5040329;28;45418;-67
2021/07/18 05:25:41;;;;;;;;;0.00;0.00;;;;;24.47;100.00;101797.53;5039724;28;46251;-66
2021/07/18 05:28:08;;;;;;;;;0.00;0.00;;;;;24.53;100.00;101791.47;5039089;28;45596;-65
2021/07/18 05:30:33;;;;;;;;;0.00;0.00;;;;;24.51;100.00;101786.31;5041545;28;46020;-66
2021/07/18 05:32:58;;;;;;;;;0.00;0.00;;;;;24.51;100.00;101789.00;5041216;28;45332;-65
2021/07/18 05:35:24;;;;;;;;;0.00;0.00;;;;;24.50;100.00;101787.31;5039738;28;45575;-64
2021/07/18 05:37:50;;;;;;;;;0.00;0.00;;;;;24.59;100.00;101788.03;5041054;28;45338;-64
2021/07/18 05:40:16;;;;;;;;;0.00;0.00;;;;;24.55;100.00;101781.38;5036764;28;45982;-64
2021/07/18 05:42:42;;;;;;;;;0.00;0.00;;;;;24.52;100.00;101787.13;5040028;28;45773;-66
2021/07/18 05:45:09;;;;;;;;;0.00;0.00;;;;;24.51;100.00;101785.44;5041723;28;45419;-70
2021/07/18 05:47:34;;;;;;;;;0.00;0.00;;;;;24.53;100.00;101783.41;5040759;28;45344;-64
2021/07/18 05:50:01;;;;;;;;;0.00;0.00;;;;;24.58;100.00;101785.53;5040448;28;45460;-69
2021/07/18 05:52:26;;;;;;;;;0.00;0.00;;;;;24.54;100.00;101790.47;5041088;28;45426;-64
2021/07/18 05:54:52;;;;;;;;;0.00;0.00;;;;;24.54;100.00;101790.47;5039242;28;46337;-66
2021/07/18 05:57:18;;;;;;;;;0.00;0.00;;;;;24.55;100.00;101795.63;5040199;28;45487;-64
2021/07/18 05:59:43;;;;;;;;;0.00;0.00;;;;;24.60;100.00;101787.03;5040469;28;45473;-64
2021/07/18 06:02:09;;;;;;;;;0.00;0.00;;;;;24.67;100.00;101795.19;5037505;28;45458;-64
2021/07/18 06:04:34;;;;;;;;;0.00;0.00;;;;;24.68;100.00;101796.84;5039899;28;45415;-64
2021/07/18 06:06:59;;;;;;;;;0.00;0.00;;;;;24.75;100.00;101801.28;5040446;28;45529;-66
2021/07/18 06:09:24;;;;;;;;;0.00;0.00;;;;;24.80;100.00;101789.97;5037105;28;45967;-65
2021/07/18 06:11:50;;;;;;;;;0.00;0.00;;;;;25.05;100.00;101789.63;5040845;28;45416;-64
2021/07/18 06:14:15;;;;;;;;;0.00;0.00;;;;;25.12;100.00;101793.25;5039510;28;45619;-69
2021/07/18 06:16:41;;;;;;;;;0.00;0.00;;;;;25.71;100.00;101779.56;5039545;28;45454;-64
2021/07/18 06:19:06;;;;;;;;;0.00;0.00;;;;;26.20;100.00;101783.28;5040773;28;45554;-64
2021/07/18 06:21:31;;;;;;;;;0.00;0.00;;;;;26.63;100.00;101795.75;5039380;28;45466;-65
2021/07/18 06:23:56;;;;;;;;;0.00;0.00;;;;;27.17;100.00;101792.22;5039760;28;46436;-65
2021/07/18 06:26:22;;;;;;;;;0.00;0.00;;;;;27.88;100.00;101791.72;5041456;28;45438;-66
2021/07/18 06:28:47;;;;;;;;;0.00;0.00;;;;;28.34;100.00;101790.00;5038544;28;45474;-66
2021/07/18 06:31:12;;;;;;;;;0.00;0.00;;;;;28.94;100.00;101789.78;5039397;28;45509;-66
2021/07/18 06:33:38;;;;;;;;;0.00;0.00;;;;;29.17;96.94;101790.09;5040188;28;46367;-64
2021/07/18 06:36:04;;;;;;;;;0.00;0.00;;;;;29.34;100.00;101789.59;5037685;28;45335;-66
2021/07/18 06:38:30;;;;;;;;;0.00;0.00;;;;;29.65;97.44;101796.84;5040875;28;45509;-65
2021/07/18 06:40:56;;;;;;;;;0.00;0.00;;;;;29.99;96.46;101798.25;5040260;28;45451;-65
2021/07/18 06:43:21;;;;;;;;;0.00;0.00;;;;;30.23;95.73;101804.66;5040577;28;45448;-63
2021/07/18 06:45:47;;;;;;;;;0.00;0.00;;;;;30.39;94.87;101808.72;5037222;28;45383;-63
2021/07/18 06:48:12;;;;;;;;;0.00;0.00;;;;;30.86;90.36;101800.88;5039664;28;45555;-64
2021/07/18 06:50:37;;;;;;;;;0.50;0.50;;;;;31.16;89.56;101812.78;5033604;28;45573;-65
2021/07/18 06:53:03;;;;;;;;;0.00;0.00;;;;;31.31;88.59;101806.91;5034269;28;46428;-65
2021/07/18 06:55:28;;;;;;;;;0.00;0.00;;;;;31.32;90.56;101805.84;5041201;28;45394;-65
2021/07/18 06:57:54;;;;;;;;;0.00;0.00;;;;;31.77;88.74;101805.38;5041585;28;45518;-65
2021/07/18 07:00:22;;;;;;;;;0.00;0.00;;;;;32.08;86.91;101801.53;5042894;28;45453;-65
2021/07/18 07:02:48;;;;;;;;;0.00;0.00;;;;;32.41;86.11;101805.50;5044460;28;46448;-65
2021/07/18 07:05:14;;;;;;;;;0.00;0.00;;;;;32.73;84.83;101797.75;5050830;28;45331;-64
2021/07/18 07:07:47;;;;;;;;;0.00;0.00;;;;;32.97;83.98;101809.34;5048194;28;45402;-64
2021/07/18 07:10:14;;;;;;;;;0.00;0.00;;;;;33.17;83.43;101803.47;5041459;28;45700;-65
2021/07/18 07:12:40;;;;;;;;;0.00;0.00;;;;;33.02;80.79;101811.34;5040759;28;45665;-65
2021/07/18 07:15:05;;;;;;;;;0.00;0.00;;;;;33.15;81.85;101796.66;5041051;28;45429;-65
2021/07/18 07:17:32;;;;;;;;;0.00;0.00;;;;;33.26;80.69;101806.63;5043603;28;45330;-65
2021/07/18 07:19:57;;;;;;;;;0.00;0.00;;;;;33.19;80.92;101801.34;5042067;28;46083;-65
2021/07/18 07:22:23;;;;;;;;;0.00;0.00;;;;;33.45;80.66;101807.25;5040361;28;46079;-65
2021/07/18 07:24:48;;;;;;;;;0.00;0.00;;;;;33.38;80.23;101804.69;5040418;28;45323;-66
2021/07/18 07:27:13;;;;;;;;;0.00;0.00;;;;;33.60;80.25;101801.25;5040954;28;45391;-66
2021/07/18 07:29:39;;;;;;;;;0.00;0.00;;;;;33.83;78.95;101809.25;5040421;28;45366;-64
2021/07/18 07:32:05;;;;;;;;;0.00;0.00;;;;;33.92;79.22;101802.28;5040522;28;46424;-65
2021/07/18 07:34:30;;;;;;;;;0.00;0.00;;;;;33.90;74.04;101807.16;5040365;28;45278;-65
2021/07/18 07:36:55;;;;;;;;;0.00;0.00;;;;;33.92;76.05;101794.13;5035862;28;45476;-65
2021/07/18 07:39:20;;;;;;;;;0.00;0.00;;;;;34.26;75.95;101804.16;5042638;28;45400;-65
2021/07/18 07:41:46;;;;;;;;;0.00;0.00;;;;;34.41;75.79;101803.53;5040112;28;45410;-65
2021/07/18 07:44:11;;;;;;;;;0.00;0.00;;;;;34.53;72.82;101796.84;5039696;28;45453;-65
2021/07/18 07:46:37;;;;;;;;;0.00;0.00;;;;;34.62;74.77;101804.59;5041725;28;45489;-65
2021/07/18 07:49:02;;;;;;;;;0.00;0.00;;;;;35.01;73.58;101801.75;5037189;28;45548;-65
2021/07/18 07:51:28;;;;;;;;;0.00;0.00;;;;;35.56;72.57;101794.38;5039094;28;45557;-65
2021/07/18 07:53:53;;;;;;;;;0.00;0.00;;;;;35.96;72.63;101802.03;5037413;28;45296;-65
2021/07/18 07:56:19;;;;;;;;;0.00;0.00;;;;;36.27;70.76;101796.78;5039733;28;45264;-65
2021/07/18 07:58:44;;;;;;;;;0.00;0.00;;;;;36.57;67.43;101803.44;5039877;28;45474;-65
2021/07/18 08:01:10;;;;;;;;;0.00;0.00;;;;;36.60;67.84;101811.94;5039724;28;46739;-66
2021/07/18 08:03:35;;;;;;;;;1.00;0.00;;;;;36.42;62.89;101807.78;5039790;28;45338;-65
2021/07/18 08:06:01;;;;;;;;;0.00;0.00;;;;;36.41;62.94;101808.84;5040417;28;45324;-66
2021/07/18 08:08:26;;;;;;;;;0.00;0.00;;;;;36.55;65.01;101809.19;5035336;28;45532;-65
2021/07/18 08:10:52;;;;;;;;;0.00;0.00;;;;;36.57;63.00;101804.28;5039752;28;45445;-65
2021/07/18 08:13:17;;;;;;;;;0.00;0.00;;;;;36.51;63.32;101803.44;5039623;28;45291;-65
2021/07/18 08:15:42;;;;;;;;;0.00;0.00;;;;;36.67;60.47;101808.97;5040135;28;45426;-66
2021/07/18 08:18:08;;;;;;;;;0.00;0.00;;;;;36.93;59.88;101797.00;5038592;28;45469;-65
2021/07/18 08:20:33;;;;;;;;;0.00;0.00;;;;;36.90;60.52;101805.75;5039615;28;46155;-65
2021/07/18 08:22:58;;;;;;;;;0.00;0.00;;;;;37.24;61.59;101799.00;5039953;28;45478;-65
2021/07/18 08:25:26;;;;;;;;;0.00;0.00;;;;;37.57;62.25;101797.63;5032141;28;45342;-65
2021/07/18 08:27:51;;;;;;;;;0.00;0.00;;;;;37.87;54.17;101791.28;5039881;28;45328;-65
2021/07/18 08:30:17;;;;;;;;;0.00;0.00;;;;;38.11;57.77;101782.44;5039040;28;45410;-65
2021/07/18 08:32:43;;;;;;;;;0.00;0.00;;;;;38.33;56.75;101791.13;5039044;28;45242;-65
2021/07/18 08:35:09;;;;;;;;;0.00;0.00;;;;;38.65;55.92;101783.59;5040170;28;45292;-65
2021/07/18 08:37:36;;;;;;;;;0.75;0.75;;;;;38.88;56.05;101785.66;5039869;28;45600;-65
2021/07/18 08:40:04;;;;;;;;;0.00;0.00;;;;;39.11;50.70;101795.09;5039831;28;46343;-65
2021/07/18 08:42:30;;;;;;;;;0.00;0.00;;;;;39.26;53.86;101785.91;5039871;28;45396;-65
2021/07/18 08:44:58;;;;;;;;;0.00;0.00;;;;;39.46;52.81;101789.63;5039941;28;45389;-65
2021/07/18 08:47:24;;;;;;;;;0.00;0.00;;;;;39.72;52.43;101779.19;5029371;28;45516;-66
2021/07/18 08:49:49;;;;;;;;;0.00;0.00;;;;;39.93;49.20;101779.81;5039394;28;45174;-66
2021/07/18 08:52:19;;;;;;;;;0.00;0.00;;;;;40.14;49.89;101777.63;5038947;28;45372;-65
2021/07/18 08:54:45;;;;;;;;;0.00;0.00;;;;;40.36;46.70;101772.41;5039054;28;45427;-66
2021/07/18 08:57:12;;;;;;;;;0.00;0.00;;;;;40.70;48.61;101774.13;5039867;28;45606;-66
2021/07/18 08:59:38;;;;;;;;;0.00;0.00;;;;;40.92;46.60;101773.53;5037625;28;45352;-66
2021/07/18 09:02:05;;;;;;;;;0.00;0.00;;;;;41.17;46.09;101766.84;5039433;28;45168;-66
2021/07/18 09:04:30;;;;;;;;;0.00;0.00;;;;;41.80;40.69;101768.16;5042679;28;45339;-65
2021/07/18 09:07:04;;;;;;;;;0.00;0.00;;;;;43.14;41.13;101768.81;5043033;28;45316;-66
2021/07/18 09:09:30;;;;;;;;;0.00;0.00;;;;;44.98;31.80;101775.69;5042217;28;45345;-65
2021/07/18 09:12:01;;;;;;;;;0.00;0.00;;;;;45.95;29.95;101777.78;5042789;28;45360;-65
2021/07/18 09:14:35;;;;;;;;;0.00;0.00;;;;;46.72;26.88;101771.22;5024705;28;45337;-66
2021/07/18 09:17:01;;;;;;;;;0.00;0.00;;;;;47.35;28.25;101771.91;5041880;28;45388;-65
2021/07/18 09:19:35;;;;;;;;;0.00;0.00;;;;;47.87;28.76;101778.75;5042793;28;45728;-65
2021/07/18 09:22:03;;;;;;;;;0.00;0.00;;;;;47.93;26.22;101774.63;5029605;28;45419;-65
2021/07/18 09:24:46;;;;;;;;;0.00;0.00;;;;;47.30;26.75;101777.66;5042318;28;45525;-66
2021/07/18 09:27:19;;;;;;;;;0.00;0.00;;;;;46.13;24.43;101772.16;5032248;28;45386;-65
2021/07/18 09:29:51;;;;;;;;;0.00;0.00;;;;;45.34;27.33;101768.91;5041754;28;46472;-66
2021/07/18 09:32:28;;;;;;;;;0.00;0.00;;;;;45.20;25.48;101761.59;5042435;28;45473;-66
2021/07/18 09:34:54;;;;;;;;;0.00;0.00;;;;;44.67;25.51;101759.22;5042116;28;45502;-66
2021/07/18 09:37:20;;;;;;;;;0.00;0.00;;;;;44.88;26.00;101759.38;5041230;28;45641;-65
2021/07/18 09:39:52;;;;;;;;;0.00;0.00;;;;;45.64;28.14;101762.31;5042047;28;45399;-66
2021/07/18 09:42:29;;;;;;;;;0.00;0.00;;;;;47.28;26.38;101762.47;5041968;28;45618;-66
2021/07/18 09:44:55;;;;;;;;;0.00;0.00;;;;;48.86;21.56;101763.41;5042177;28;45400;-65
2021/07/18 09:47:21;;;;;;;;;0.00;0.00;;;;;49.94;19.15;101754.97;5042407;28;45385;-65
2021/07/18 09:49:48;;;;;;;;;0.00;0.00;;;;;51.39;18.63;101764.94;5042105;28;46284;-65
2021/07/18 09:52:28;;;;;;;;;0.00;0.00;;;;;52.17;19.66;101764.56;5041600;28;45323;-65
2021/07/18 09:54:58;;;;;;;;;0.00;0.00;;;;;53.42;18.72;101762.19;5041775;28;45411;-65
2021/07/18 09:57:34;;;;;;;;;0.00;0.00;;;;;53.84;15.15;101755.28;5041403;28;45462;-64
2021/07/18 10:00:00;;;;;;;;;0.00;0.00;;;;;53.89;16.75;101749.28;5041302;28;45411;-65
2021/07/18 10:02:27;;;;;;;;;0.00;0.00;;;;;54.24;16.94;101751.47;5041296;28;45435;-66
2021/07/18 10:04:56;;;;;;;;;0.00;0.00;;;;;54.26;17.24;101748.25;5041226;28;45443;-65
2021/07/18 10:07:28;;;;;;;;;0.00;0.00;;;;;53.69;16.35;101760.78;5040891;28;45241;-65
2021/07/18 10:09:54;;;;;;;;;0.00;0.00;;;;;52.77;17.88;101749.59;5040435;28;45547;-66
2021/07/18 10:12:20;;;;;;;;;0.00;0.00;;;;;52.12;17.90;101746.06;5041200;28;45389;-66
2021/07/18 10:14:46;;;;;;;;;0.00;0.00;;;;;51.89;17.08;101746.94;5022005;28;45363;-66
2021/07/18 10:17:11;;;;;;;;;0.00;0.00;;;;;51.29;19.70;101749.63;5041448;28;45482;-66
2021/07/18 10:19:37;;;;;;;;;0.00;0.00;;;;;51.58;20.45;101750.88;5040822;28;46669;-66
2021/07/18 10:22:04;;;;;;;;;0.00;0.00;;;;;51.89;19.79;101754.56;5041617;28;45315;-65
2021/07/18 10:24:33;;;;;;;;;0.00;0.00;;;;;51.34;18.05;101751.28;5041268;28;45340;-66
2021/07/18 10:27:02;;;;;;;;;0.00;0.00;;;;;50.69;18.51;101742.53;5041866;28;45431;-66
2021/07/18 10:29:27;;;;;;;;;0.00;0.00;;;;;50.86;19.18;101743.25;5039983;28;45960;-66
2021/07/18 10:31:56;;;;;;;;;0.00;0.00;;;;;51.17;19.28;101749.81;5041184;28;45273;-65
2021/07/18 10:34:29;;;;;;;;;0.00;0.00;;;;;51.14;17.04;101742.97;5041531;28;45304;-66
2021/07/18 10:36:55;;;;;;;;;0.00;0.00;;;;;50.96;17.59;101745.44;5041188;28;45438;-66
2021/07/18 10:39:30;;;;;;;;;0.00;0.00;;;;;51.44;16.16;101736.69;5040609;28;45633;-67
2021/07/18 10:41:57;;;;;;;;;0.00;0.00;;;;;51.95;16.67;101729.81;5041041;28;45312;-66
2021/07/18 10:44:23;;;;;;;;;0.00;0.00;;;;;53.05;15.17;101732.22;5040966;28;45442;-66
2021/07/18 10:46:54;;;;;;;;;0.00;0.00;;;;;53.75;15.47;101726.72;5041046;28;45947;-65
2021/07/18 10:49:45;;;;;;;;;0.00;0.00;;;;;54.09;14.03;101725.28;5040677;28;46424;-65
2021/07/18 10:52:12;;;;;;;;;0.00;0.00;;;;;54.00;13.60;101730.47;5039900;28;45409;-66
2021/07/18 10:54:42;;;;;;;;;0.00;0.00;;;;;53.21;14.85;101721.56;5040684;28;45279;-65
2021/07/18 10:57:22;;;;;;;;;0.00;0.00;;;;;52.15;15.39;101722.09;5039623;28;45783;-67
2021/07/18 10:59:48;;;;;;;;;0.00;0.00;;;;;50.99;16.99;101719.53;5040725;28;45395;-68
2021/07/18 11:02:18;;;;;;;;;0.00;0.00;;;;;49.93;16.97;101714.22;5040336;28;45333;-66
2021/07/18 11:04:46;;;;;;;;;0.00;0.00;;;;;48.84;18.28;101714.75;5040695;28;45385;-66
2021/07/18 11:07:20;;;;;;;;;0.00;0.00;;;;;47.80;18.87;101706.13;5040797;28;45376;-66
2021/07/18 11:09:47;;;;;;;;;0.00;0.00;;;;;47.40;20.01;101706.88;5033920;28;46449;-67
2021/07/18 11:12:32;;;;;;;;;0.00;0.00;;;;;47.39;20.72;101711.63;5039696;28;45421;-67
2021/07/18 11:15:15;;;;;;;;;0.00;0.00;;;;;47.03;20.16;101715.97;5038840;28;45362;-66